createdAt,value
2018-12-15T00:01:20.483Z,-1.21
2018-12-15T00:03:50.061Z,-1.19
2018-12-15T00:06:19.601Z,-1.07
2018-12-15T00:08:49.125Z,-1.13
2018-12-15T00:11:18.550Z,-1.13
2018-12-15T00:13:47.949Z,-1.14
2018-12-15T00:16:17.242Z,-1.14
2018-12-15T00:18:46.698Z,-1.19
2018-12-15T00:24:18.694Z,-1.24
2018-12-15T00:26:48.066Z,-1.26
2018-12-15T00:29:17.481Z,-1.16
2018-12-15T00:31:46.953Z,-1.18
2018-12-15T00:34:16.428Z,-1.23
2018-12-15T00:36:46.060Z,-1.23
2018-12-15T00:39:15.388Z,-1.22
2018-12-15T00:41:44.678Z,-1.20
2018-12-15T00:44:14.174Z,-1.22
2018-12-15T00:46:43.644Z,-1.25
2018-12-15T00:49:13.004Z,-1.21
2018-12-15T00:51:42.471Z,-1.23
2018-12-15T00:54:12.690Z,-1.24
2018-12-15T00:56:42.115Z,-1.21
2018-12-15T00:59:11.456Z,-1.23
2018-12-15T01:01:40.784Z,-1.25
2018-12-15T01:04:10.126Z,-1.21
2018-12-15T01:06:40.037Z,-1.20
2018-12-15T01:09:09.367Z,-1.20
2018-12-15T01:11:38.713Z,-1.24
2018-12-15T01:14:08.134Z,-1.31
2018-12-15T01:16:37.751Z,-1.24
2018-12-15T01:19:07.058Z,-1.21
2018-12-15T01:21:36.426Z,-1.25
2018-12-15T01:24:05.855Z,-1.28
2018-12-15T01:26:35.241Z,-1.24
2018-12-15T01:29:04.573Z,-1.22
2018-12-15T01:31:33.959Z,-1.21
2018-12-15T01:34:03.396Z,-1.21
2018-12-15T01:36:33.578Z,-1.23
2018-12-15T01:39:04.368Z,-1.21
2018-12-15T01:41:33.676Z,-1.17
2018-12-15T01:44:03.074Z,-1.24
2018-12-15T01:46:32.566Z,-1.22
2018-12-15T01:49:01.931Z,-1.22
2018-12-15T01:51:31.321Z,-1.21
2018-12-15T01:54:00.706Z,-1.25
2018-12-15T01:56:30.010Z,-1.14
2018-12-15T01:58:59.461Z,-1.23
2018-12-15T02:01:28.828Z,-1.27
2018-12-15T02:03:58.253Z,-1.25
2018-12-15T02:06:27.546Z,-1.22
2018-12-15T02:08:56.930Z,-1.21
2018-12-15T02:11:26.610Z,-1.26
2018-12-15T02:13:56.050Z,-1.23
2018-12-15T02:16:25.333Z,-1.18
2018-12-15T02:18:54.878Z,-1.17
2018-12-15T02:21:24.279Z,-1.20
2018-12-15T02:26:47.851Z,-1.25
2018-12-15T02:29:17.978Z,-1.26
2018-12-15T02:31:47.343Z,-1.26
2018-12-15T02:34:16.706Z,-1.25
2018-12-15T02:36:45.986Z,-1.25
2018-12-15T02:39:16.227Z,-1.22
2018-12-15T02:41:47.333Z,-1.23
2018-12-15T02:44:16.861Z,-1.31
2018-12-15T02:46:46.181Z,-1.30
2018-12-15T02:49:18.239Z,-1.25
2018-12-15T02:51:47.669Z,-1.28
2018-12-15T02:54:17.158Z,-1.27
2018-12-15T02:56:46.525Z,-1.19
2018-12-15T02:59:15.956Z,-1.25
2018-12-15T03:01:45.349Z,-1.22
2018-12-15T03:04:14.665Z,-1.30
2018-12-15T03:06:44.118Z,-1.27
2018-12-15T03:09:13.414Z,-1.26
2018-12-15T03:11:43.668Z,-1.27
2018-12-15T03:14:13.109Z,-1.32
2018-12-15T03:17:06.442Z,-1.30
2018-12-15T03:19:36.008Z,-1.24
2018-12-15T03:22:05.437Z,-1.30
2018-12-15T03:24:34.772Z,-1.33
2018-12-15T03:30:04.857Z,-1.33
2018-12-15T03:32:34.440Z,-1.33
2018-12-15T03:35:03.914Z,-1.34
2018-12-15T03:40:26.507Z,-1.39
2018-12-15T03:42:55.895Z,-1.37
2018-12-15T03:45:25.995Z,-1.35
2018-12-15T03:47:56.365Z,-1.38
2018-12-15T03:50:26.119Z,-1.42
2018-12-15T03:52:55.440Z,-1.35
2018-12-15T03:55:24.728Z,-1.36
2018-12-15T03:57:54.010Z,-1.34
2018-12-15T04:00:23.448Z,-1.36
2018-12-15T04:02:52.822Z,-1.37
2018-12-15T04:05:22.223Z,-1.36
2018-12-15T04:07:51.719Z,-1.38
2018-12-15T04:10:21.097Z,-1.35
2018-12-15T04:12:50.446Z,-1.45
2018-12-15T04:15:19.811Z,-1.42
2018-12-15T04:17:55.825Z,-1.38
2018-12-15T04:20:25.187Z,-1.37
2018-12-15T04:22:54.548Z,-1.41
2018-12-15T04:25:24.003Z,-1.45
2018-12-15T04:27:53.379Z,-1.42
2018-12-15T04:30:22.660Z,-1.40
2018-12-15T04:32:52.052Z,-1.36
2018-12-15T04:35:21.497Z,-1.40
2018-12-15T04:37:50.910Z,-1.40
2018-12-15T04:40:20.853Z,-1.43
2018-12-15T04:42:50.376Z,-1.41
2018-12-15T04:45:19.725Z,-1.40
2018-12-15T04:47:48.599Z,-1.36
2018-12-15T04:50:17.957Z,-1.39
2018-12-15T04:52:47.363Z,-1.39
2018-12-15T04:55:16.686Z,-1.42
2018-12-15T04:57:46.122Z,-1.40
2018-12-15T05:00:15.712Z,-1.39
2018-12-15T05:02:45.089Z,-1.40
2018-12-15T05:05:14.535Z,-1.39
2018-12-15T05:07:43.993Z,-1.47
2018-12-15T05:10:13.428Z,-1.46
2018-12-15T05:12:42.720Z,-1.41
2018-12-15T05:15:12.250Z,-1.41
2018-12-15T05:17:41.693Z,-1.37
2018-12-15T05:20:11.048Z,-1.42
2018-12-15T05:22:40.530Z,-1.40
2018-12-15T05:25:10.098Z,-1.43
2018-12-15T05:27:39.463Z,-1.42
2018-12-15T05:30:09.050Z,-1.41
2018-12-15T05:32:38.451Z,-1.39
2018-12-15T05:35:08.411Z,-1.43
2018-12-15T05:37:37.742Z,-1.45
2018-12-15T05:40:07.365Z,-1.50
2018-12-15T05:42:36.754Z,-1.46
2018-12-15T05:45:07.498Z,-1.46
2018-12-15T05:47:36.975Z,-1.48
2018-12-15T05:50:06.617Z,-1.49
2018-12-15T05:52:35.934Z,-1.51
2018-12-15T05:55:05.546Z,-1.45
2018-12-15T05:57:34.977Z,-1.46
2018-12-15T06:00:05.815Z,-1.46
2018-12-15T06:02:35.487Z,-1.40
2018-12-15T06:05:05.541Z,-1.41
2018-12-15T06:07:34.959Z,-1.42
2018-12-15T06:10:04.739Z,-1.47
2018-12-15T06:12:34.178Z,-1.45
2018-12-15T06:15:03.641Z,-1.43
2018-12-15T06:17:33.180Z,-1.41
2018-12-15T06:20:02.626Z,-1.44
2018-12-15T06:22:31.951Z,-1.53
2018-12-15T06:25:01.431Z,-1.45
2018-12-15T06:27:31.008Z,-1.45
2018-12-15T06:30:00.329Z,-1.42
2018-12-15T06:32:29.738Z,-1.45
2018-12-15T06:34:59.099Z,-1.50
2018-12-15T06:37:28.575Z,-1.55
2018-12-15T06:39:57.955Z,-1.51
2018-12-15T06:42:27.366Z,-1.60
2018-12-15T06:44:56.798Z,-1.52
2018-12-15T06:50:29.287Z,-1.60
2018-12-15T06:52:58.859Z,-1.57
2018-12-15T06:55:28.415Z,-1.60
2018-12-15T06:57:58.679Z,-1.57
2018-12-15T07:00:27.985Z,-1.60
2018-12-15T07:02:57.372Z,-1.59
2018-12-15T07:05:26.811Z,-1.55
2018-12-15T07:07:56.171Z,-1.54
2018-12-15T07:10:25.482Z,-1.58
2018-12-15T07:12:54.805Z,-1.58
2018-12-15T07:15:24.128Z,-1.55
2018-12-15T07:17:54.079Z,-1.50
2018-12-15T07:20:23.496Z,-1.53
2018-12-15T07:22:52.870Z,-1.54
2018-12-15T07:25:22.372Z,-1.53
2018-12-15T07:27:51.732Z,-1.61
2018-12-15T07:30:21.981Z,-1.55
2018-12-15T07:32:51.273Z,-1.49
2018-12-15T07:35:20.580Z,-1.49
2018-12-15T07:37:50.435Z,-1.52
2018-12-15T07:40:19.917Z,-1.55
2018-12-15T07:42:49.205Z,-1.59
2018-12-15T07:45:18.670Z,-1.49
2018-12-15T07:47:48.068Z,-1.42
2018-12-15T07:50:17.427Z,-1.44
2018-12-15T07:52:46.722Z,-1.44
2018-12-15T07:55:15.989Z,-1.45
2018-12-15T07:57:45.399Z,-1.45
2018-12-15T08:00:15.078Z,-1.47
2018-12-15T08:02:44.476Z,-1.37
2018-12-15T08:05:13.798Z,-1.37
2018-12-15T08:07:43.275Z,-1.37
2018-12-15T08:10:12.602Z,-1.31
2018-12-15T08:12:42.977Z,-1.33
2018-12-15T08:15:12.453Z,-1.32
2018-12-15T08:17:41.910Z,-1.38
2018-12-15T08:20:11.762Z,-1.35
2018-12-15T08:22:41.167Z,-1.33
2018-12-15T08:25:10.654Z,-1.28
2018-12-15T08:27:39.994Z,-1.23
2018-12-15T08:30:11.341Z,-1.25
2018-12-15T08:32:40.651Z,-1.20
2018-12-15T08:35:10.202Z,-1.14
2018-12-15T08:37:39.513Z,-1.11
2018-12-15T08:40:09.594Z,-1.13
2018-12-15T08:42:38.953Z,-1.19
2018-12-15T08:45:08.481Z,-1.18
2018-12-15T08:47:37.803Z,-1.22
2018-12-15T08:50:07.276Z,-1.17
2018-12-15T08:52:36.859Z,-1.10
2018-12-15T08:55:06.757Z,-1.03
2018-12-15T08:57:35.693Z,-1.10
2018-12-15T09:00:05.769Z,-1.02
2018-12-15T09:02:35.070Z,-1.00
2018-12-15T09:05:04.865Z,-0.96
2018-12-15T09:07:34.279Z,-0.99
2018-12-15T09:10:03.750Z,-0.90
2018-12-15T09:12:33.596Z,-0.98
2018-12-15T09:15:03.094Z,-0.91
2018-12-15T09:17:32.539Z,-0.89
2018-12-15T09:20:01.843Z,-0.94
2018-12-15T09:22:31.158Z,-0.87
2018-12-15T09:25:00.659Z,-0.80
2018-12-15T09:27:30.083Z,-0.83
2018-12-15T09:29:59.417Z,-0.86
2018-12-15T09:32:28.863Z,-0.83
2018-12-15T09:34:58.213Z,-0.86
2018-12-15T09:37:27.583Z,-0.81
2018-12-15T09:39:56.896Z,-0.82
2018-12-15T09:45:27.634Z,-0.77
2018-12-15T09:47:57.011Z,-0.72
2018-12-15T09:50:26.424Z,-0.66
2018-12-15T09:52:55.754Z,-0.61
2018-12-15T09:55:25.597Z,-0.64
2018-12-15T09:57:55.019Z,-0.66
2018-12-15T10:00:24.449Z,-0.65
2018-12-15T10:02:53.693Z,-0.60
2018-12-15T10:05:23.213Z,-0.58
2018-12-15T10:07:52.536Z,-0.57
2018-12-15T10:10:22.006Z,-0.54
2018-12-15T10:12:51.328Z,-0.52
2018-12-15T10:15:20.676Z,-0.49
2018-12-15T10:17:49.939Z,-0.43
2018-12-15T10:20:19.348Z,-0.50
2018-12-15T10:22:48.687Z,-0.55
2018-12-15T10:28:18.651Z,-0.57
2018-12-15T10:30:53.157Z,-0.52
2018-12-15T10:33:22.609Z,-0.44
2018-12-15T10:35:52.009Z,-0.36
2018-12-15T10:38:22.077Z,-0.34
2018-12-15T10:40:51.486Z,-0.51
2018-12-15T10:43:20.881Z,-0.56
2018-12-15T10:45:50.218Z,-0.49
2018-12-15T10:51:22.558Z,-0.48
2018-12-15T10:53:52.156Z,-0.43
2018-12-15T10:56:21.558Z,-0.47
2018-12-15T10:58:50.918Z,-0.41
2018-12-15T11:01:22.936Z,-0.39
2018-12-15T11:03:52.749Z,-0.42
2018-12-15T11:06:22.146Z,-0.39
2018-12-15T11:08:51.699Z,-0.43
2018-12-15T11:11:21.313Z,-0.48
2018-12-15T11:13:50.698Z,-0.50
2018-12-15T11:16:20.157Z,-0.45
2018-12-15T11:18:49.521Z,-0.42
2018-12-15T11:21:18.982Z,-0.57
2018-12-15T11:23:48.537Z,-0.57
2018-12-15T11:26:17.965Z,-0.57
2018-12-15T11:28:47.430Z,-0.54
2018-12-15T11:31:16.876Z,-0.56
2018-12-15T11:33:46.376Z,-0.52
2018-12-15T11:36:16.355Z,-0.54
2018-12-15T11:38:45.720Z,-0.51
2018-12-15T11:41:15.035Z,-0.57
2018-12-15T11:43:44.401Z,-0.56
2018-12-15T11:46:13.842Z,-0.55
2018-12-15T11:48:43.639Z,-0.49
2018-12-15T11:51:13.083Z,-0.47
2018-12-15T11:53:42.560Z,-0.48
2018-12-15T11:56:11.976Z,-0.55
2018-12-15T11:58:41.925Z,-0.63
2018-12-15T12:01:11.313Z,-0.66
2018-12-15T12:03:40.754Z,-0.69
2018-12-15T12:06:10.102Z,-0.62
2018-12-15T12:08:40.079Z,-0.60
2018-12-15T12:11:09.617Z,-0.64
2018-12-15T12:13:39.165Z,-0.67
2018-12-15T12:16:08.581Z,-0.74
2018-12-15T12:18:37.925Z,-0.75
2018-12-15T12:21:07.829Z,-0.75
2018-12-15T12:23:37.252Z,-0.81
2018-12-15T12:26:06.770Z,-0.78
2018-12-15T12:28:36.183Z,-0.76
2018-12-15T12:31:05.681Z,-0.78
2018-12-15T12:36:45.899Z,-0.73
2018-12-15T12:39:15.392Z,-0.76
2018-12-15T12:41:44.716Z,-0.70
2018-12-15T12:44:14.159Z,-0.75
2018-12-15T12:46:43.552Z,-0.83
2018-12-15T12:49:12.899Z,-0.78
2018-12-15T12:51:42.218Z,-0.78
2018-12-15T12:54:11.575Z,-0.79
2018-12-15T12:56:40.901Z,-0.80
2018-12-15T12:59:10.384Z,-0.83
2018-12-15T13:01:39.730Z,-0.87
2018-12-15T13:04:09.070Z,-0.88
2018-12-15T13:06:38.579Z,-0.84
2018-12-15T13:09:08.499Z,-0.75
2018-12-15T13:11:37.957Z,-0.86
2018-12-15T13:14:07.489Z,-0.81
2018-12-15T13:16:36.866Z,-0.73
2018-12-15T13:19:06.290Z,-0.72
2018-12-15T13:21:35.670Z,-0.70
2018-12-15T13:24:05.221Z,-0.68
2018-12-15T13:26:34.587Z,-0.64
2018-12-15T13:29:04.227Z,-0.62
2018-12-15T13:31:33.598Z,-0.71
2018-12-15T13:34:03.023Z,-0.75
2018-12-15T13:36:32.444Z,-0.85
2018-12-15T13:39:01.841Z,-0.89
2018-12-15T13:41:31.186Z,-0.87
2018-12-15T13:44:00.493Z,-0.87
2018-12-15T13:46:29.887Z,-0.82
2018-12-15T13:48:59.281Z,-0.77
2018-12-15T13:51:28.698Z,-0.77
2018-12-15T13:53:58.698Z,-0.83
2018-12-15T13:56:28.030Z,-0.81
2018-12-15T13:58:57.358Z,-0.82
2018-12-15T14:01:26.599Z,-0.82
2018-12-15T14:03:56.347Z,-0.77
2018-12-15T14:06:25.664Z,-0.75
2018-12-15T14:08:54.953Z,-0.79
2018-12-15T14:11:24.258Z,-0.84
2018-12-15T14:13:53.594Z,-0.86
2018-12-15T14:16:23.270Z,-0.88
2018-12-15T14:18:52.703Z,-0.91
2018-12-15T14:21:22.067Z,-0.92
2018-12-15T14:23:51.391Z,-0.93
2018-12-15T14:29:26.758Z,-1.01
2018-12-15T14:31:56.238Z,-1.01
2018-12-15T14:34:25.747Z,-1.01
2018-12-15T14:36:55.927Z,-1.08
2018-12-15T14:39:25.403Z,-1.12
2018-12-15T14:41:55.026Z,-1.19
2018-12-15T14:44:24.482Z,-1.22
2018-12-15T14:49:59.670Z,-1.24
2018-12-15T14:52:29.027Z,-1.23
2018-12-15T14:54:58.640Z,-1.23
2018-12-15T14:57:28.012Z,-1.25
2018-12-15T14:59:57.352Z,-1.19
2018-12-15T15:02:27.605Z,-1.27
2018-12-15T15:04:57.015Z,-1.34
2018-12-15T15:07:26.449Z,-1.39
2018-12-15T15:09:55.892Z,-1.36
2018-12-15T15:12:25.306Z,-1.32
2018-12-15T15:14:54.913Z,-1.33
2018-12-15T15:17:24.386Z,-1.39
2018-12-15T15:19:53.806Z,-1.40
2018-12-15T15:22:23.092Z,-1.39
2018-12-15T15:27:53.624Z,-1.49
2018-12-15T15:30:22.990Z,-1.46
2018-12-15T15:32:52.548Z,-1.44
2018-12-15T15:35:21.845Z,-1.45
2018-12-15T15:37:51.209Z,-1.52
2018-12-15T15:40:20.699Z,-1.50
2018-12-15T15:42:50.728Z,-1.52
2018-12-15T15:45:20.060Z,-1.60
2018-12-15T15:47:49.354Z,-1.61
2018-12-15T15:50:18.754Z,-1.53
2018-12-15T15:52:47.980Z,-1.60
2018-12-15T15:55:17.455Z,-1.60
2018-12-15T15:57:46.804Z,-1.57
2018-12-15T16:00:16.320Z,-1.59
2018-12-15T16:02:45.678Z,-1.65
2018-12-15T16:05:15.038Z,-1.64
2018-12-15T16:07:44.863Z,-1.62
2018-12-15T16:10:15.822Z,-1.58
2018-12-15T16:12:45.170Z,-1.54
2018-12-15T16:15:15.090Z,-1.60
2018-12-15T16:17:44.570Z,-1.57
2018-12-15T16:20:14.570Z,-1.58
2018-12-15T16:22:44.121Z,-1.59
2018-12-15T16:25:13.824Z,-1.67
2018-12-15T16:27:43.547Z,-1.63
2018-12-15T16:30:13.946Z,-1.67
2018-12-15T16:32:43.499Z,-1.71
2018-12-15T16:35:13.186Z,-1.76
2018-12-15T16:37:42.757Z,-1.74
2018-12-15T16:40:12.518Z,-1.71
2018-12-15T16:42:42.064Z,-1.66
2018-12-15T16:45:12.637Z,-1.70
2018-12-15T16:47:42.040Z,-1.71
2018-12-15T16:50:14.422Z,-1.76
2018-12-15T16:52:44.286Z,-1.75
2018-12-15T16:55:14.018Z,-1.78
2018-12-15T16:57:43.433Z,-1.77
2018-12-15T17:00:15.082Z,-1.76
2018-12-15T17:02:44.496Z,-1.69
2018-12-15T17:05:14.101Z,-1.75
2018-12-15T17:07:43.590Z,-1.76
2018-12-15T17:10:13.192Z,-1.78
2018-12-15T17:12:42.673Z,-1.77
2018-12-15T17:15:12.455Z,-1.75
2018-12-15T17:17:41.936Z,-1.78
2018-12-15T17:20:11.780Z,-1.76
2018-12-15T17:22:41.260Z,-1.82
2018-12-15T17:28:14.703Z,-2.06
2018-12-15T17:30:44.114Z,-2.05
2018-12-15T17:33:13.500Z,-1.96
2018-12-15T17:35:43.069Z,-1.91
2018-12-15T17:38:12.425Z,-1.88
2018-12-15T17:40:41.954Z,-1.91
2018-12-15T17:43:11.528Z,-1.98
2018-12-15T17:45:40.993Z,-1.99
2018-12-15T17:48:10.461Z,-2.01
2018-12-15T17:50:39.854Z,-2.01
2018-12-15T17:53:09.359Z,-2.09
2018-12-15T17:55:38.838Z,-2.12
2018-12-15T17:58:14.569Z,-2.09
2018-12-15T18:00:40.338Z,-1.95
2018-12-15T18:03:09.831Z,-1.93
2018-12-15T18:05:39.417Z,-1.92
2018-12-15T18:08:09.017Z,-1.92
2018-12-15T18:10:38.596Z,-1.88
2018-12-15T18:13:08.142Z,-1.90
2018-12-15T18:15:37.596Z,-1.86
2018-12-15T18:18:06.940Z,-1.85
2018-12-15T18:20:37.018Z,-1.88
2018-12-15T18:23:06.665Z,-1.89
2018-12-15T18:25:36.343Z,-1.82
2018-12-15T18:28:05.718Z,-1.80
2018-12-15T18:30:35.225Z,-1.81
2018-12-15T18:33:04.850Z,-1.82
2018-12-15T18:35:34.482Z,-1.74
2018-12-15T18:38:04.049Z,-1.73
2018-12-15T18:40:33.600Z,-1.74
2018-12-15T18:43:02.934Z,-1.75
2018-12-15T18:45:32.386Z,-1.77
2018-12-15T18:48:01.810Z,-1.77
2018-12-15T18:50:31.334Z,-1.77
2018-12-15T18:53:00.731Z,-1.81
2018-12-15T18:55:30.135Z,-1.79
2018-12-15T18:57:59.715Z,-1.76
2018-12-15T19:00:29.353Z,-1.78
2018-12-15T19:02:58.841Z,-1.75
2018-12-15T19:05:28.293Z,-1.72
2018-12-15T19:07:57.706Z,-1.74
2018-12-15T19:10:27.151Z,-1.68
2018-12-15T19:12:56.654Z,-1.67
2018-12-15T19:15:26.506Z,-1.62
2018-12-15T19:17:56.039Z,-1.67
2018-12-15T19:20:25.386Z,-1.68
2018-12-15T19:22:54.755Z,-1.67
2018-12-15T19:25:24.171Z,-1.68
2018-12-15T19:27:53.595Z,-1.66
2018-12-15T19:30:22.999Z,-1.65
2018-12-15T19:32:52.403Z,-1.67
2018-12-15T19:35:21.679Z,-1.64
2018-12-15T19:37:51.039Z,-1.71
2018-12-15T19:40:20.581Z,-1.67
2018-12-15T19:42:50.738Z,-1.73
2018-12-15T19:45:20.199Z,-1.72
2018-12-15T19:47:49.534Z,-1.76
2018-12-15T19:50:18.909Z,-1.76
2018-12-15T19:52:48.473Z,-1.80
2018-12-15T19:55:17.946Z,-1.78
2018-12-15T19:57:47.397Z,-1.76
2018-12-15T20:00:16.927Z,-1.78
2018-12-15T20:02:46.501Z,-1.83
2018-12-15T20:05:15.984Z,-1.81
2018-12-15T20:07:45.352Z,-1.84
2018-12-15T20:10:14.738Z,-1.87
2018-12-15T20:12:44.172Z,-1.89
2018-12-15T20:15:13.761Z,-1.91
2018-12-15T20:17:43.365Z,-1.87
2018-12-15T20:20:12.811Z,-1.90
2018-12-15T20:22:42.365Z,-1.90
2018-12-15T20:25:11.325Z,-1.91
2018-12-15T20:27:40.979Z,-1.93
2018-12-15T20:30:11.057Z,-1.89
2018-12-15T20:32:40.523Z,-1.84
2018-12-15T20:35:09.978Z,-1.88
2018-12-15T20:37:39.374Z,-1.92
2018-12-15T20:40:10.432Z,-1.92
2018-12-15T20:42:39.891Z,-1.92
2018-12-15T20:45:09.622Z,-1.92
2018-12-15T20:47:39.439Z,-1.92
2018-12-15T20:50:09.179Z,-1.95
2018-12-15T20:52:38.493Z,-1.96
2018-12-15T20:55:07.988Z,-1.97
2018-12-15T20:57:37.405Z,-2.04
2018-12-15T21:00:08.571Z,-2.11
2018-12-15T21:02:38.158Z,-2.17
2018-12-15T21:05:07.655Z,-2.13
2018-12-15T21:07:37.119Z,-2.18
2018-12-15T21:10:07.598Z,-2.22
2018-12-15T21:12:37.065Z,-2.24
2018-12-15T21:18:08.917Z,-2.35
2018-12-15T21:20:38.366Z,-2.44
2018-12-15T21:23:07.822Z,-2.46
2018-12-15T21:28:40.463Z,-2.51
2018-12-15T21:31:09.843Z,-2.53
2018-12-15T21:33:39.158Z,-2.53
2018-12-15T21:36:08.658Z,-2.54
2018-12-15T21:38:37.991Z,-2.59
2018-12-15T21:41:07.582Z,-2.62
2018-12-15T21:43:37.076Z,-2.65
2018-12-15T21:46:06.478Z,-2.68
2018-12-15T21:48:36.932Z,-2.73
2018-12-15T21:51:06.334Z,-2.77
2018-12-15T21:53:35.928Z,-2.86
2018-12-15T21:56:05.425Z,-2.90
2018-12-15T21:58:34.844Z,-2.88
2018-12-15T22:01:04.377Z,-2.86
2018-12-15T22:03:33.916Z,-2.85
2018-12-15T22:06:03.290Z,-2.83
2018-12-15T22:11:33.823Z,-2.77
2018-12-15T22:14:03.365Z,-2.77
2018-12-15T22:16:32.907Z,-2.81
2018-12-15T22:19:02.261Z,-2.80
2018-12-15T22:21:31.799Z,-2.83
2018-12-15T22:24:01.296Z,-2.82
2018-12-15T22:26:32.359Z,-2.92
2018-12-15T22:29:02.159Z,-3.03
2018-12-15T22:31:32.150Z,-3.17
2018-12-15T22:34:01.509Z,-3.27
2018-12-15T22:36:30.910Z,-3.25
2018-12-15T22:39:00.298Z,-3.31
2018-12-15T22:41:29.686Z,-3.43
2018-12-15T22:43:59.187Z,-3.54
2018-12-15T22:46:28.534Z,-3.61
2018-12-15T22:48:58.080Z,-3.70
2018-12-15T22:51:27.467Z,-3.79
2018-12-15T22:53:56.737Z,-3.88
2018-12-15T22:56:26.269Z,-3.98
2018-12-15T22:58:55.874Z,-4.02
2018-12-15T23:01:25.409Z,-4.07
2018-12-15T23:03:55.022Z,-4.09
2018-12-15T23:06:24.517Z,-4.08
2018-12-15T23:08:53.937Z,-4.14
2018-12-15T23:11:23.323Z,-4.19
2018-12-15T23:13:52.715Z,-4.21
2018-12-15T23:16:22.023Z,-4.21
2018-12-15T23:18:51.391Z,-4.21
2018-12-15T23:21:20.819Z,-4.34
2018-12-15T23:26:57.076Z,-4.34
2018-12-15T23:29:27.518Z,-4.35
2018-12-15T23:31:57.782Z,-4.40
2018-12-15T23:34:27.996Z,-4.54
2018-12-15T23:36:58.089Z,-4.52
2018-12-15T23:39:28.668Z,-4.51
2018-12-15T23:41:59.124Z,-4.61
2018-12-15T23:44:29.751Z,-4.54
2018-12-15T23:47:00.296Z,-4.49
2018-12-15T23:49:31.031Z,-4.66
2018-12-15T23:52:01.978Z,-4.60
2018-12-15T23:54:33.540Z,-4.62
2018-12-15T23:57:03.647Z,-4.72
2018-12-15T23:59:33.955Z,-4.70
